createdAt,value
2018-07-24T00:02:21.393Z,21.20
2018-07-24T00:04:49.747Z,21.20
2018-07-24T00:07:18.065Z,21.16
2018-07-24T00:09:47.789Z,21.10
2018-07-24T00:12:16.081Z,21.08
2018-07-24T00:14:44.658Z,20.89
2018-07-24T00:17:12.937Z,20.89
2018-07-24T00:19:41.215Z,20.87
2018-07-24T00:22:09.542Z,20.81
2018-07-24T00:24:37.814Z,20.80
2018-07-24T00:27:07.267Z,20.85
2018-07-24T00:29:35.568Z,20.85
2018-07-24T00:32:03.892Z,20.81
2018-07-24T00:34:32.512Z,20.74
2018-07-24T00:37:00.841Z,20.67
2018-07-24T00:39:29.125Z,20.68
2018-07-24T00:41:57.467Z,20.67
2018-07-24T00:44:25.790Z,20.49
2018-07-24T00:46:54.124Z,20.46
2018-07-24T00:49:22.414Z,20.47
2018-07-24T00:51:50.713Z,20.80
2018-07-24T00:54:19.094Z,20.61
2018-07-24T00:56:47.329Z,20.50
2018-07-24T00:59:15.996Z,20.44
2018-07-24T01:01:44.366Z,20.34
2018-07-24T01:04:12.680Z,20.28
2018-07-24T01:06:40.971Z,20.21
2018-07-24T01:09:10.634Z,20.20
2018-07-24T01:11:38.962Z,20.18
2018-07-24T01:14:07.347Z,20.12
2018-07-24T01:16:35.655Z,20.10
2018-07-24T01:19:04.009Z,20.05
2018-07-24T01:21:32.268Z,19.99
2018-07-24T01:24:00.553Z,19.94
2018-07-24T01:26:28.929Z,19.90
2018-07-24T01:28:57.207Z,19.89
2018-07-24T01:31:25.464Z,19.89
2018-07-24T01:33:53.717Z,19.99
2018-07-24T01:36:22.033Z,19.85
2018-07-24T01:38:50.374Z,19.73
2018-07-24T01:41:18.684Z,19.76
2018-07-24T01:43:46.933Z,19.71
2018-07-24T01:46:15.198Z,19.60
2018-07-24T01:48:43.494Z,19.60
2018-07-24T01:51:11.846Z,19.55
2018-07-24T01:53:40.140Z,19.57
2018-07-24T01:56:08.399Z,19.66
2018-07-24T01:58:36.689Z,19.64
2018-07-24T02:01:04.961Z,19.53
2018-07-24T02:03:34.377Z,19.50
2018-07-24T02:06:03.899Z,19.44
2018-07-24T02:08:32.647Z,19.46
2018-07-24T02:11:01.003Z,19.45
2018-07-24T02:13:29.252Z,19.39
2018-07-24T02:15:57.584Z,19.40
2018-07-24T02:18:25.848Z,19.34
2018-07-24T02:20:54.129Z,19.35
2018-07-24T02:23:22.381Z,19.30
2018-07-24T02:25:50.666Z,19.28
2018-07-24T02:28:19.039Z,19.20
2018-07-24T02:30:47.290Z,19.19
2018-07-24T02:33:15.627Z,19.27
2018-07-24T02:35:43.891Z,19.14
2018-07-24T02:38:12.239Z,19.06
2018-07-24T02:40:40.498Z,19.00
2018-07-24T02:43:08.839Z,18.93
2018-07-24T02:45:37.133Z,18.93
2018-07-24T02:48:05.457Z,18.90
2018-07-24T02:50:33.824Z,18.94
2018-07-24T02:53:02.157Z,18.99
2018-07-24T02:55:30.444Z,18.91
2018-07-24T02:57:58.734Z,18.92
2018-07-24T03:00:26.981Z,18.91
2018-07-24T03:02:55.244Z,18.85
2018-07-24T03:05:23.577Z,18.81
2018-07-24T03:07:51.829Z,18.77
2018-07-24T03:10:20.178Z,18.69
2018-07-24T03:12:48.470Z,18.65
2018-07-24T03:15:16.755Z,18.64
2018-07-24T03:17:45.055Z,18.70
2018-07-24T03:20:13.338Z,18.65
2018-07-24T03:22:41.590Z,18.76
2018-07-24T03:25:09.922Z,18.76
2018-07-24T03:27:38.327Z,18.80
2018-07-24T03:30:06.988Z,18.79
2018-07-24T03:32:35.395Z,18.79
2018-07-24T03:35:03.869Z,18.82
2018-07-24T03:37:32.360Z,18.71
2018-07-24T03:40:00.718Z,18.69
2018-07-24T03:42:28.978Z,18.68
2018-07-24T03:44:57.286Z,18.77
2018-07-24T03:47:25.553Z,18.73
2018-07-24T03:49:53.835Z,18.76
2018-07-24T03:52:22.628Z,18.71
2018-07-24T03:54:50.911Z,18.69
2018-07-24T03:57:19.180Z,18.67
2018-07-24T03:59:47.521Z,18.65
2018-07-24T04:02:15.811Z,18.65
2018-07-24T04:04:44.116Z,18.64
2018-07-24T04:07:12.655Z,18.64
2018-07-24T04:09:40.901Z,18.71
2018-07-24T04:12:09.220Z,18.77
2018-07-24T04:14:37.476Z,18.81
2018-07-24T04:17:05.730Z,18.84
2018-07-24T04:19:34.079Z,18.99
2018-07-24T04:22:02.351Z,19.11
2018-07-24T04:24:30.598Z,19.13
2018-07-24T04:26:58.876Z,19.22
2018-07-24T04:29:27.152Z,19.25
2018-07-24T04:31:55.556Z,19.23
2018-07-24T04:34:23.902Z,19.24
2018-07-24T04:36:52.135Z,19.25
2018-07-24T04:39:20.402Z,19.33
2018-07-24T04:41:48.693Z,19.42
2018-07-24T04:44:17.025Z,19.60
2018-07-24T04:46:45.287Z,19.54
2018-07-24T04:49:13.893Z,19.61
2018-07-24T04:51:42.186Z,19.90
2018-07-24T04:54:10.448Z,19.89
2018-07-24T04:56:38.766Z,19.97
2018-07-24T04:59:07.106Z,20.07
2018-07-24T05:01:35.414Z,20.31
2018-07-24T05:04:04.323Z,20.38
2018-07-24T05:06:32.646Z,20.48
2018-07-24T05:09:00.920Z,20.51
2018-07-24T05:11:29.547Z,20.46
2018-07-24T05:13:57.910Z,20.45
2018-07-24T05:16:26.214Z,20.44
2018-07-24T05:18:54.554Z,20.58
2018-07-24T05:21:23.113Z,20.68
2018-07-24T05:23:51.602Z,20.67
2018-07-24T05:26:20.201Z,20.65
2018-07-24T05:28:48.476Z,20.70
2018-07-24T05:31:16.785Z,20.83
2018-07-24T05:33:45.432Z,20.71
2018-07-24T05:36:13.715Z,20.87
2018-07-24T05:38:42.093Z,20.89
2018-07-24T05:41:10.422Z,21.07
2018-07-24T05:43:38.745Z,21.20
2018-07-24T05:46:07.017Z,21.34
2018-07-24T05:48:35.392Z,21.49
2018-07-24T05:51:03.699Z,21.60
2018-07-24T05:53:32.401Z,21.79
2018-07-24T05:56:00.724Z,21.85
2018-07-24T05:58:29.124Z,21.95
2018-07-24T06:00:57.396Z,22.04
2018-07-24T06:03:25.768Z,22.17
2018-07-24T06:05:54.121Z,22.28
2018-07-24T06:08:22.382Z,22.42
2018-07-24T06:10:50.711Z,22.53
2018-07-24T06:13:18.969Z,22.66
2018-07-24T06:15:47.276Z,22.76
2018-07-24T06:18:15.515Z,22.79
2018-07-24T06:20:43.941Z,22.93
2018-07-24T06:23:12.205Z,23.00
2018-07-24T06:25:40.551Z,23.12
2018-07-24T06:28:08.819Z,23.16
2018-07-24T06:30:37.296Z,23.23
2018-07-24T06:33:05.607Z,23.38
2018-07-24T06:35:33.885Z,23.46
2018-07-24T06:38:02.191Z,23.60
2018-07-24T06:40:30.504Z,23.73
2018-07-24T06:42:58.767Z,23.79
2018-07-24T06:45:27.069Z,23.88
2018-07-24T06:47:55.376Z,24.02
2018-07-24T06:50:24.180Z,24.16
2018-07-24T06:52:52.498Z,24.22
2018-07-24T06:55:21.012Z,24.38
2018-07-24T06:57:49.539Z,24.69
2018-07-24T07:00:18.362Z,24.98
2018-07-24T07:02:46.659Z,25.05
2018-07-24T07:05:14.902Z,25.07
2018-07-24T07:07:43.289Z,25.31
2018-07-24T07:10:11.872Z,25.49
2018-07-24T07:12:40.140Z,25.63
2018-07-24T07:15:09.091Z,25.70
2018-07-24T07:17:37.455Z,25.79
2018-07-24T07:20:05.778Z,26.01
2018-07-24T07:22:34.370Z,26.18
2018-07-24T07:25:02.880Z,26.38
2018-07-24T07:27:31.240Z,26.44
2018-07-24T07:30:00.661Z,26.69
2018-07-24T07:32:29.182Z,26.74
2018-07-24T07:34:57.464Z,26.80
2018-07-24T07:37:25.777Z,27.05
2018-07-24T07:39:54.122Z,27.18
2018-07-24T07:42:22.471Z,27.40
2018-07-24T07:44:50.745Z,27.50
2018-07-24T07:47:19.047Z,27.56
2018-07-24T07:49:47.348Z,27.75
2018-07-24T07:52:15.805Z,27.89
2018-07-24T07:54:44.272Z,28.12
2018-07-24T07:57:12.616Z,27.84
2018-07-24T07:59:40.921Z,28.16
2018-07-24T08:02:09.231Z,28.28
2018-07-24T08:04:37.913Z,28.27
2018-07-24T08:07:06.286Z,28.25
2018-07-24T08:09:34.551Z,28.49
2018-07-24T08:12:03.033Z,28.64
2018-07-24T08:14:31.423Z,28.65
2018-07-24T08:16:59.725Z,28.64
2018-07-24T08:19:28.017Z,28.77
2018-07-24T08:21:56.636Z,28.87
2018-07-24T08:24:25.306Z,28.63
2018-07-24T08:26:53.606Z,28.89
2018-07-24T08:29:21.920Z,28.84
2018-07-24T08:31:50.214Z,28.96
2018-07-24T08:34:18.515Z,29.34
2018-07-24T08:36:46.777Z,29.00
2018-07-24T08:39:15.131Z,29.11
2018-07-24T08:41:43.441Z,29.43
2018-07-24T08:44:11.762Z,29.69
2018-07-24T08:46:40.032Z,29.91
2018-07-24T08:49:08.412Z,30.04
2018-07-24T08:51:36.730Z,30.05
2018-07-24T08:54:05.197Z,29.71
2018-07-24T08:56:33.436Z,29.76
2018-07-24T08:59:01.734Z,29.84
2018-07-24T09:01:30.279Z,29.95
2018-07-24T09:03:58.610Z,30.27
2018-07-24T09:06:26.877Z,30.09
2018-07-24T09:08:55.178Z,30.52
2018-07-24T09:11:23.478Z,30.62
2018-07-24T09:13:51.770Z,30.67
2018-07-24T09:16:20.093Z,30.42
2018-07-24T09:18:48.355Z,30.10
2018-07-24T09:21:16.755Z,30.55
2018-07-24T09:23:45.048Z,30.55
2018-07-24T09:26:13.340Z,30.96
2018-07-24T09:28:41.620Z,30.98
2018-07-24T09:31:09.944Z,31.02
2018-07-24T09:33:38.250Z,31.13
2018-07-24T09:36:06.544Z,31.17
2018-07-24T09:38:34.868Z,31.23
2018-07-24T09:41:03.184Z,31.31
2018-07-24T09:43:31.617Z,31.28
2018-07-24T09:45:59.967Z,31.60
2018-07-24T09:48:28.236Z,31.52
2018-07-24T09:50:56.565Z,31.59
2018-07-24T09:53:24.817Z,31.22
2018-07-24T09:55:53.403Z,31.47
2018-07-24T09:58:21.752Z,31.44
2018-07-24T10:00:55.586Z,31.59
2018-07-24T10:03:24.163Z,31.06
2018-07-24T10:05:52.455Z,31.50
2018-07-24T10:08:20.736Z,31.73
2018-07-24T10:10:49.068Z,31.82
2018-07-24T10:13:17.561Z,31.96
2018-07-24T10:15:45.755Z,31.62
2018-07-24T10:18:14.065Z,32.00
2018-07-24T10:20:42.724Z,31.73
2018-07-24T10:23:10.972Z,31.91
2018-07-24T10:25:44.916Z,31.71
2018-07-24T10:28:13.298Z,31.47
2018-07-24T10:30:42.807Z,31.77
2018-07-24T10:33:11.216Z,31.85
2018-07-24T10:35:39.872Z,32.20
2018-07-24T10:38:08.199Z,32.37
2018-07-24T10:40:36.455Z,31.99
2018-07-24T10:43:05.075Z,32.13
2018-07-24T10:45:35.833Z,32.26
2018-07-24T10:48:04.155Z,32.37
2018-07-24T10:50:32.693Z,32.73
2018-07-24T10:53:01.006Z,32.23
2018-07-24T10:55:29.351Z,32.37
2018-07-24T10:57:57.679Z,32.54
2018-07-24T11:00:25.963Z,32.65
2018-07-24T11:02:54.274Z,32.78
2018-07-24T11:05:22.669Z,32.98
2018-07-24T11:07:51.018Z,32.80
2018-07-24T11:10:19.328Z,32.26
2018-07-24T11:12:47.571Z,32.66
2018-07-24T11:15:15.916Z,32.76
2018-07-24T11:17:44.218Z,32.77
2018-07-24T11:20:12.585Z,33.09
2018-07-24T11:22:41.124Z,32.88
2018-07-24T11:25:09.331Z,33.02
2018-07-24T11:27:37.608Z,33.28
2018-07-24T11:30:06.644Z,33.67
2018-07-24T11:32:34.991Z,33.29
2018-07-24T11:35:03.296Z,33.95
2018-07-24T11:37:31.576Z,33.30
2018-07-24T11:39:59.853Z,33.46
2018-07-24T11:42:28.160Z,33.73
2018-07-24T11:44:56.455Z,33.90
2018-07-24T11:47:24.734Z,34.16
2018-07-24T11:49:53.120Z,33.84
2018-07-24T11:52:21.451Z,33.46
2018-07-24T11:54:49.699Z,34.11
2018-07-24T11:57:18.097Z,34.40
2018-07-24T11:59:46.397Z,34.26
2018-07-24T12:02:14.656Z,34.05
2018-07-24T12:04:42.962Z,34.28
2018-07-24T12:07:11.261Z,34.47
2018-07-24T12:09:40.549Z,34.28
2018-07-24T12:12:08.833Z,34.63
2018-07-24T12:14:37.215Z,34.66
2018-07-24T12:17:05.461Z,34.52
2018-07-24T12:19:33.844Z,34.48
2018-07-24T12:22:02.181Z,34.66
2018-07-24T12:24:30.599Z,34.45
2018-07-24T12:26:58.926Z,34.62
2018-07-24T12:29:27.269Z,34.75
2018-07-24T12:31:55.524Z,34.96
2018-07-24T12:34:23.811Z,34.75
2018-07-24T12:36:52.249Z,35.36
2018-07-24T12:39:20.567Z,35.63
2018-07-24T12:41:48.912Z,36.30
2018-07-24T12:44:17.180Z,36.38
2018-07-24T12:46:45.474Z,35.55
2018-07-24T12:49:13.783Z,37.02
2018-07-24T12:51:42.134Z,37.25
2018-07-24T12:54:10.429Z,36.79
2018-07-24T12:56:38.729Z,35.95
2018-07-24T12:59:07.136Z,36.25
2018-07-24T13:01:35.600Z,36.46
2018-07-24T13:04:03.941Z,36.70
2018-07-24T13:06:32.203Z,36.43
2018-07-24T13:09:00.500Z,37.27
2018-07-24T13:11:28.803Z,37.43
2018-07-24T13:13:57.111Z,36.83
2018-07-24T13:16:26.673Z,36.77
2018-07-24T13:18:54.962Z,35.99
2018-07-24T13:21:23.266Z,35.92
2018-07-24T13:23:51.563Z,38.01
2018-07-24T13:26:19.887Z,38.68
2018-07-24T13:28:48.169Z,36.68
2018-07-24T13:31:16.452Z,35.75
2018-07-24T13:33:44.757Z,35.05
2018-07-24T13:36:13.132Z,36.47
2018-07-24T13:38:41.420Z,37.85
2018-07-24T13:41:09.716Z,38.30
2018-07-24T13:43:38.110Z,39.14
2018-07-24T13:46:06.447Z,39.38
2018-07-24T13:48:34.770Z,41.37
2018-07-24T13:51:03.141Z,40.88
2018-07-24T13:53:31.451Z,39.47
2018-07-24T13:56:04.136Z,39.78
2018-07-24T13:58:33.673Z,40.61
2018-07-24T14:01:01.966Z,41.34
2018-07-24T14:03:30.365Z,40.09
2018-07-24T14:05:58.620Z,40.24
2018-07-24T14:08:26.996Z,39.87
2018-07-24T14:10:55.230Z,40.22
2018-07-24T14:13:23.514Z,43.11
2018-07-24T14:15:52.002Z,41.76
2018-07-24T14:18:20.271Z,40.07
2018-07-24T14:20:48.693Z,40.41
2018-07-24T14:23:17.003Z,40.40
2018-07-24T14:25:45.256Z,41.58
2018-07-24T14:28:13.550Z,41.06
2018-07-24T14:30:41.814Z,39.86
2018-07-24T14:33:10.155Z,40.25
2018-07-24T14:35:38.631Z,41.48
2018-07-24T14:38:06.899Z,40.68
2018-07-24T14:40:35.220Z,39.82
2018-07-24T14:43:03.671Z,40.83
2018-07-24T14:45:31.989Z,39.92
2018-07-24T14:48:00.245Z,38.91
2018-07-24T14:50:28.630Z,38.30
2018-07-24T14:52:56.956Z,37.54
2018-07-24T14:55:25.297Z,38.14
2018-07-24T14:57:53.597Z,39.26
2018-07-24T15:00:21.909Z,42.06
2018-07-24T15:02:50.225Z,40.06
2018-07-24T15:05:18.535Z,39.83
2018-07-24T15:07:46.824Z,41.80
2018-07-24T15:10:15.101Z,41.09
2018-07-24T15:12:43.392Z,41.77
2018-07-24T15:15:11.652Z,43.37
2018-07-24T15:17:39.945Z,44.58
2018-07-24T15:20:08.266Z,44.66
2018-07-24T15:22:36.814Z,43.79
2018-07-24T15:25:05.268Z,42.87
2018-07-24T15:27:33.548Z,43.39
2018-07-24T15:30:01.981Z,43.67
2018-07-24T15:32:30.328Z,46.15
2018-07-24T15:34:58.616Z,46.83
2018-07-24T15:37:26.935Z,44.11
2018-07-24T15:39:56.753Z,43.37
2018-07-24T15:42:25.151Z,45.22
2018-07-24T15:44:53.420Z,40.72
2018-07-24T15:47:21.694Z,43.26
2018-07-24T15:49:49.942Z,42.44
2018-07-24T15:52:18.301Z,41.96
2018-07-24T15:54:46.626Z,43.88
2018-07-24T15:57:14.916Z,44.58
2018-07-24T15:59:43.269Z,42.63
2018-07-24T16:02:11.929Z,40.56
2018-07-24T16:04:40.202Z,43.10
2018-07-24T16:07:08.466Z,42.26
2018-07-24T16:09:37.974Z,42.75
2018-07-24T16:12:07.746Z,42.44
2018-07-24T16:14:37.233Z,43.91
2018-07-24T16:17:05.918Z,42.14
2018-07-24T16:19:34.336Z,41.80
2018-07-24T16:22:02.655Z,40.88
2018-07-24T16:24:30.919Z,40.09
2018-07-24T16:26:59.245Z,40.95
2018-07-24T16:29:27.614Z,42.16
2018-07-24T16:31:55.918Z,42.69
2018-07-24T16:34:24.235Z,43.39
2018-07-24T16:36:52.614Z,42.78
2018-07-24T16:39:20.944Z,44.19
2018-07-24T16:41:49.324Z,41.54
2018-07-24T16:44:17.644Z,43.66
2018-07-24T16:46:46.069Z,44.22
2018-07-24T16:49:14.410Z,43.64
2018-07-24T16:51:42.773Z,42.33
2018-07-24T16:54:11.417Z,40.70
2018-07-24T16:56:39.695Z,43.30
2018-07-24T16:59:08.008Z,42.73
2018-07-24T17:01:36.282Z,41.74
2018-07-24T17:04:06.177Z,43.07
2018-07-24T17:06:38.554Z,43.26
2018-07-24T17:09:08.140Z,42.81
2018-07-24T17:11:38.209Z,43.53
2018-07-24T17:14:06.513Z,43.16
2018-07-24T17:16:35.710Z,42.31
2018-07-24T17:19:04.098Z,43.39
2018-07-24T17:21:32.521Z,43.95
2018-07-24T17:24:00.852Z,43.37
2018-07-24T17:26:29.473Z,42.90
2018-07-24T17:28:57.752Z,42.78
2018-07-24T17:31:26.050Z,43.80
2018-07-24T17:33:54.453Z,43.50
2018-07-24T17:36:22.760Z,42.29
2018-07-24T17:38:52.010Z,43.57
2018-07-24T17:41:20.326Z,43.64
2018-07-24T17:43:48.797Z,43.10
2018-07-24T17:46:17.148Z,42.79
2018-07-24T17:48:45.442Z,42.80
2018-07-24T17:51:13.722Z,41.60
2018-07-24T17:53:42.197Z,43.11
2018-07-24T17:56:10.513Z,43.10
2018-07-24T17:58:39.071Z,42.51
2018-07-24T18:01:07.499Z,42.74
2018-07-24T18:03:37.569Z,41.79
2018-07-24T18:06:06.242Z,41.83
2018-07-24T18:08:34.669Z,41.66
2018-07-24T18:11:02.929Z,39.61
2018-07-24T18:13:31.319Z,39.17
2018-07-24T18:15:59.641Z,40.15
2018-07-24T18:18:28.424Z,39.21
2018-07-24T18:20:56.708Z,38.88
2018-07-24T18:23:27.100Z,37.25
2018-07-24T18:25:55.478Z,37.14
2018-07-24T18:28:26.680Z,36.55
2018-07-24T18:30:55.784Z,36.24
2018-07-24T18:33:24.438Z,35.69
2018-07-24T18:35:52.860Z,35.07
2018-07-24T18:38:21.224Z,34.67
2018-07-24T18:40:49.595Z,34.54
2018-07-24T18:43:17.923Z,34.76
2018-07-24T18:45:46.221Z,34.21
2018-07-24T18:48:14.790Z,34.23
2018-07-24T18:50:43.349Z,33.93
2018-07-24T18:53:11.947Z,33.61
2018-07-24T18:55:40.262Z,33.69
2018-07-24T18:58:08.882Z,33.88
2018-07-24T19:00:40.119Z,33.38
2018-07-24T19:03:08.593Z,33.10
2018-07-24T19:05:36.845Z,32.93
2018-07-24T19:08:05.629Z,32.53
2018-07-24T19:10:33.934Z,32.34
2018-07-24T19:13:02.866Z,32.12
2018-07-24T19:15:31.221Z,31.92
2018-07-24T19:17:59.479Z,31.69
2018-07-24T19:20:27.966Z,31.38
2018-07-24T19:22:56.272Z,31.22
2018-07-24T19:25:24.619Z,31.01
2018-07-24T19:27:53.517Z,30.81
2018-07-24T19:30:21.991Z,30.50
2018-07-24T19:32:50.473Z,30.28
2018-07-24T19:35:18.948Z,29.90
2018-07-24T19:37:47.537Z,29.85
2018-07-24T19:40:18.472Z,29.65
2018-07-24T19:42:47.343Z,29.51
2018-07-24T19:45:15.790Z,29.66
2018-07-24T19:47:44.238Z,29.72
2018-07-24T19:50:12.682Z,29.31
2018-07-24T19:52:41.214Z,29.08
2018-07-24T19:55:09.870Z,28.72
2018-07-24T19:57:38.363Z,28.75
2018-07-24T20:00:08.200Z,28.48
2018-07-24T20:02:36.953Z,28.78
2018-07-24T20:05:05.715Z,28.72
2018-07-24T20:07:34.106Z,28.53
2018-07-24T20:10:02.708Z,28.43
2018-07-24T20:12:31.120Z,28.17
2018-07-24T20:14:59.490Z,27.99
2018-07-24T20:17:28.898Z,27.94
2018-07-24T20:19:57.860Z,27.96
2018-07-24T20:22:26.522Z,27.79
2018-07-24T20:27:38.192Z,27.59
2018-07-24T20:30:07.095Z,27.53
2018-07-24T20:32:35.496Z,27.38
2018-07-24T20:35:03.981Z,27.39
2018-07-24T20:37:32.531Z,27.41
2018-07-24T20:40:00.823Z,27.22
2018-07-24T20:42:29.100Z,27.27
2018-07-24T20:44:57.808Z,27.11
2018-07-24T20:47:26.211Z,27.00
2018-07-24T20:49:54.459Z,26.96
2018-07-24T20:52:22.853Z,26.77
2018-07-24T20:54:51.262Z,26.69
2018-07-24T20:57:19.511Z,26.64
2018-07-24T20:59:47.822Z,26.57
2018-07-24T21:02:16.215Z,26.45
2018-07-24T21:04:44.489Z,26.38
2018-07-24T21:07:13.186Z,26.46
2018-07-24T21:09:41.454Z,26.20
2018-07-24T21:12:09.873Z,26.10
2018-07-24T21:14:38.205Z,26.08
2018-07-24T21:17:06.737Z,25.96
2018-07-24T21:19:35.054Z,25.98
2018-07-24T21:22:03.366Z,25.79
2018-07-24T21:24:31.606Z,25.76
2018-07-24T21:27:00.297Z,25.68
2018-07-24T21:29:28.743Z,25.60
2018-07-24T21:31:57.018Z,25.45
2018-07-24T21:34:25.549Z,25.45
2018-07-24T21:36:53.862Z,25.39
2018-07-24T21:39:22.128Z,25.32
2018-07-24T21:41:50.377Z,25.19
2018-07-24T21:44:18.779Z,25.12
2018-07-24T21:46:47.148Z,25.07
2018-07-24T21:49:15.469Z,24.93
2018-07-24T21:51:43.855Z,24.91
2018-07-24T21:54:12.120Z,24.84
2018-07-24T21:56:40.493Z,24.85
2018-07-24T21:59:08.763Z,24.66
2018-07-24T22:01:37.096Z,24.74
2018-07-24T22:04:05.790Z,24.59
2018-07-24T22:06:34.122Z,24.73
2018-07-24T22:09:02.624Z,24.60
2018-07-24T22:11:30.802Z,24.58
2018-07-24T22:13:59.079Z,24.51
2018-07-24T22:16:27.342Z,24.36
2018-07-24T22:18:55.675Z,24.36
2018-07-24T22:21:24.007Z,24.43
2018-07-24T22:23:52.299Z,24.37
2018-07-24T22:26:20.577Z,24.20
2018-07-24T22:28:48.835Z,24.13
2018-07-24T22:31:17.129Z,24.11
2018-07-24T22:33:45.435Z,23.95
2018-07-24T22:36:13.693Z,23.94
2018-07-24T22:38:42.166Z,23.83
2018-07-24T22:41:10.427Z,23.73
2018-07-24T22:43:39.495Z,23.69
2018-07-24T22:46:07.762Z,23.67
2018-07-24T22:48:36.075Z,23.63
2018-07-24T22:51:04.350Z,23.58
2018-07-24T22:53:32.645Z,23.71
2018-07-24T22:56:00.952Z,23.57
2018-07-24T22:58:29.244Z,23.40
2018-07-24T23:00:57.535Z,23.33
2018-07-24T23:03:25.801Z,23.25
2018-07-24T23:05:54.146Z,23.17
2018-07-24T23:08:22.500Z,23.13
2018-07-24T23:10:50.786Z,23.10
2018-07-24T23:13:19.078Z,23.05
2018-07-24T23:15:48.242Z,23.05
2018-07-24T23:18:16.591Z,23.15
2018-07-24T23:20:44.959Z,23.04
2018-07-24T23:23:13.246Z,22.97
2018-07-24T23:25:41.618Z,23.01
2018-07-24T23:28:09.911Z,23.04
2018-07-24T23:30:38.244Z,22.94
2018-07-24T23:33:06.854Z,22.92
2018-07-24T23:35:35.111Z,22.91
2018-07-24T23:38:03.709Z,22.85
2018-07-24T23:40:32.015Z,22.73
2018-07-24T23:43:00.279Z,22.71
2018-07-24T23:45:28.707Z,22.75
2018-07-24T23:47:57.027Z,22.68
2018-07-24T23:50:25.360Z,22.69
2018-07-24T23:52:53.630Z,22.73
2018-07-24T23:55:21.933Z,22.64
2018-07-24T23:57:50.199Z,22.61
